Time,TemperatureF,DewpointF,PressureIn,WindDirection,WindDirectionDegrees,WindSpeedMPH,WindSpeedGustMPH,Humidity,HourlyPrecipIn,Conditions,Clouds,dailyrainin,SolarRadiationWatts/m^2,SoftwareType,DateUTC
2013-01-31 00:00:00,21.9,18.4,30.31,North,-999,0.0,0.0,86,0.00,,,-99.99,0,WeatherLink 5.7,2013-01-31 07:00:00,
2013-01-31 00:10:00,21.9,18.4,30.30,North,-999,0.0,0.0,86,0.00,,,-99.99,0,WeatherLink 5.7,2013-01-31 07:10:00,
2013-01-31 00:15:00,21.9,18.4,30.30,North,-999,0.0,0.0,86,0.00,,,-99.99,0,WeatherLink 5.7,2013-01-31 07:15:00,
2013-01-31 00:25:00,21.9,18.4,30.29,North,-999,0.0,0.0,86,0.00,,,-99.99,0,WeatherLink 5.7,2013-01-31 07:25:00,
2013-01-31 00:30:00,21.9,18.4,30.29,North,-999,0.0,0.0,86,0.00,,,-99.99,0,WeatherLink 5.7,2013-01-31 07:30:00,
2013-01-31 00:35:00,21.9,18.4,30.29,North,-999,0.0,0.0,86,0.00,,,-99.99,0,WeatherLink 5.7,2013-01-31 07:35:00,
2013-01-31 00:45:00,21.9,18.4,30.29,North,-999,0.0,0.0,86,0.00,,,-99.99,0,WeatherLink 5.7,2013-01-31 07:45:00,
2013-01-31 00:50:00,21.9,18.4,30.30,North,-999,0.0,0.0,86,0.00,,,-99.99,0,WeatherLink 5.7,2013-01-31 07:50:00,
2013-01-31 01:00:00,21.9,18.4,30.30,North,-999,0.0,0.0,86,0.00,,,-99.99,0,WeatherLink 5.7,2013-01-31 08:00:00,
2013-01-31 01:05:00,21.9,18.4,30.29,North,-999,0.0,0.0,86,0.00,,,-99.99,0,WeatherLink 5.7,2013-01-31 08:05:00,
2013-01-31 01:15:00,21.9,18.4,30.29,North,-999,0.0,0.0,86,0.00,,,-99.99,0,WeatherLink 5.7,2013-01-31 08:15:00,
2013-01-31 01:25:00,21.9,18.6,30.30,North,-999,0.0,0.0,87,0.00,,,-99.99,0,WeatherLink 5.7,2013-01-31 08:25:00,
2013-01-31 01:30:00,21.9,18.6,30.30,North,-999,0.0,0.0,87,0.00,,,-99.99,0,WeatherLink 5.7,2013-01-31 08:30:00,
2013-01-31 01:40:00,21.9,18.6,30.30,North,-999,0.0,0.0,87,0.00,,,-99.99,0,WeatherLink 5.7,2013-01-31 08:40:00,
2013-01-31 01:45:00,22.1,18.8,30.30,North,-999,0.0,0.0,87,0.00,,,-99.99,0,WeatherLink 5.7,2013-01-31 08:45:00,
2013-01-31 01:55:00,22.1,18.8,30.30,North,-999,0.0,0.0,87,0.00,,,-99.99,0,WeatherLink 5.7,2013-01-31 08:55:00,
2013-01-31 02:00:00,22.1,18.8,30.30,North,-999,0.0,0.0,87,0.00,,,-99.99,0,WeatherLink 5.7,2013-01-31 09:00:00,
2013-01-31 02:10:00,22.1,18.8,30.30,North,-999,0.0,0.0,87,0.00,,,-99.99,0,WeatherLink 5.7,2013-01-31 09:10:00,
2013-01-31 02:20:00,22.1,18.8,30.31,North,-999,0.0,0.0,87,0.00,,,-99.99,0,WeatherLink 5.7,2013-01-31 09:20:00,
2013-01-31 02:25:00,22.1,18.8,30.31,North,-999,0.0,0.0,87,0.00,,,-99.99,0,WeatherLink 5.7,2013-01-31 09:25:00,
2013-01-31 02:35:00,22.2,18.9,30.31,North,-999,0.0,0.0,87,0.00,,,-99.99,0,WeatherLink 5.7,2013-01-31 09:35:00,
2013-01-31 02:45:00,22.2,18.9,30.31,North,-999,0.0,0.0,87,0.00,,,-99.99,0,WeatherLink 5.7,2013-01-31 09:45:00,
2013-01-31 02:50:00,22.2,18.9,30.30,North,-999,0.0,0.0,87,0.00,,,-99.99,0,WeatherLink 5.7,2013-01-31 09:50:00,
2013-01-31 03:00:00,22.2,18.9,30.30,North,-999,0.0,0.0,87,0.00,,,-99.99,0,WeatherLink 5.7,2013-01-31 10:00:00,
2013-01-31 03:10:00,22.2,18.9,30.31,North,-999,0.0,0.0,87,0.00,,,-99.99,0,WeatherLink 5.7,2013-01-31 10:10:00,
2013-01-31 03:20:00,22.2,18.9,30.31,North,-999,0.0,0.0,87,0.00,,,-99.99,0,WeatherLink 5.7,2013-01-31 10:20:00,
2013-01-31 03:25:00,22.1,18.8,30.31,North,-999,0.0,0.0,87,0.00,,,-99.99,0,WeatherLink 5.7,2013-01-31 10:25:00,
2013-01-31 03:35:00,22.1,18.8,30.32,North,-999,0.0,0.0,87,0.00,,,-99.99,0,WeatherLink 5.7,2013-01-31 10:35:00,
2013-01-31 03:45:00,22.1,18.8,30.32,North,-999,0.0,0.0,87,0.00,,,-99.99,0,WeatherLink 5.7,2013-01-31 10:45:00,
2013-01-31 03:50:00,22.1,18.8,30.31,East,90,2.0,4.0,87,0.00,,,-99.99,0,WeatherLink 5.7,2013-01-31 10:50:00,
2013-01-31 04:00:00,22.1,18.8,30.31,North,-999,0.0,0.0,87,0.00,,,-99.99,0,WeatherLink 5.7,2013-01-31 11:00:00,
2013-01-31 04:10:00,22.2,18.9,30.32,East,90,0.0,2.0,87,0.00,,,-99.99,0,WeatherLink 5.7,2013-01-31 11:10:00,
2013-01-31 04:15:00,22.4,19.1,30.33,SE,135,1.0,4.0,87,0.00,,,-99.99,0,WeatherLink 5.7,2013-01-31 11:15:00,
2013-01-31 04:20:00,22.6,19.3,30.33,SE,135,0.0,3.0,87,0.00,,,-99.99,0,WeatherLink 5.7,2013-01-31 11:20:00,
2013-01-31 04:25:00,22.6,19.3,30.33,SE,135,0.0,2.0,87,0.00,,,-99.99,0,WeatherLink 5.7,2013-01-31 11:25:00,
2013-01-31 04:30:00,22.6,19.0,30.33,North,-999,0.0,0.0,86,0.00,,,-99.99,0,WeatherLink 5.7,2013-01-31 11:30:00,
2013-01-31 04:35:00,22.6,19.0,30.33,North,-999,0.0,0.0,86,0.00,,,-99.99,0,WeatherLink 5.7,2013-01-31 11:35:00,
2013-01-31 04:40:00,22.6,19.0,30.33,North,-999,0.0,0.0,86,0.00,,,-99.99,0,WeatherLink 5.7,2013-01-31 11:40:00,
2013-01-31 04:45:00,22.4,18.8,30.33,North,-999,0.0,0.0,86,0.00,,,-99.99,0,WeatherLink 5.7,2013-01-31 11:45:00,
2013-01-31 04:50:00,22.6,19.0,30.33,North,-999,0.0,0.0,86,0.00,,,-99.99,0,WeatherLink 5.7,2013-01-31 11:50:00,
2013-01-31 04:55:00,22.6,19.0,30.33,North,-999,0.0,0.0,86,0.00,,,-99.99,0,WeatherLink 5.7,2013-01-31 11:55:00,
2013-01-31 05:00:00,22.6,19.0,30.33,SE,135,0.0,2.0,86,0.00,,,-99.99,0,WeatherLink 5.7,2013-01-31 12:00:00,
2013-01-31 05:05:00,22.6,19.0,30.33,East,90,0.0,3.0,86,0.00,,,-99.99,0,WeatherLink 5.7,2013-01-31 12:05:00,
2013-01-31 05:10:00,22.6,19.0,30.33,East,90,2.0,4.0,86,0.00,,,-99.99,0,WeatherLink 5.7,2013-01-31 12:10:00,
2013-01-31 05:15:00,22.6,19.0,30.34,East,90,0.0,1.0,86,0.00,,,-99.99,0,WeatherLink 5.7,2013-01-31 12:15:00,
2013-01-31 05:20:00,22.6,19.0,30.34,East,90,1.0,2.0,86,0.00,,,-99.99,0,WeatherLink 5.7,2013-01-31 12:20:00,
2013-01-31 05:25:00,22.6,19.0,30.34,East,90,1.0,3.0,86,0.00,,,-99.99,0,WeatherLink 5.7,2013-01-31 12:25:00,
2013-01-31 05:30:00,22.6,19.0,30.33,East,90,2.0,3.0,86,0.00,,,-99.99,0,WeatherLink 5.7,2013-01-31 12:30:00,
2013-01-31 05:35:00,22.6,19.0,30.33,East,90,1.0,3.0,86,0.00,,,-99.99,0,WeatherLink 5.7,2013-01-31 12:35:00,
2013-01-31 05:40:00,22.6,19.0,30.33,East,90,0.0,2.0,86,0.00,,,-99.99,0,WeatherLink 5.7,2013-01-31 12:40:00,
2013-01-31 05:45:00,22.6,19.0,30.34,East,90,0.0,2.0,86,0.00,,,-99.99,0,WeatherLink 5.7,2013-01-31 12:45:00,
2013-01-31 05:50:00,22.6,19.0,30.34,East,90,0.0,2.0,86,0.00,,,-99.99,0,WeatherLink 5.7,2013-01-31 12:50:00,
2013-01-31 05:55:00,22.6,19.0,30.34,North,-999,0.0,0.0,86,0.00,,,-99.99,0,WeatherLink 5.7,2013-01-31 12:55:00,
2013-01-31 06:00:00,22.7,19.1,30.34,East,90,0.0,2.0,86,0.00,,,-99.99,0,WeatherLink 5.7,2013-01-31 13:00:00,
2013-01-31 06:05:00,22.7,19.1,30.34,North,-999,0.0,0.0,86,0.00,,,-99.99,0,WeatherLink 5.7,2013-01-31 13:05:00,
2013-01-31 06:10:00,22.7,19.1,30.34,East,90,0.0,2.0,86,0.00,,,-99.99,0,WeatherLink 5.7,2013-01-31 13:10:00,
2013-01-31 06:15:00,22.6,19.0,30.35,North,-999,0.0,0.0,86,0.00,,,-99.99,0,WeatherLink 5.7,2013-01-31 13:15:00,
2013-01-31 06:20:00,22.7,19.1,30.35,North,-999,0.0,0.0,86,0.00,,,-99.99,0,WeatherLink 5.7,2013-01-31 13:20:00,
2013-01-31 06:25:00,22.7,19.1,30.35,North,-999,0.0,0.0,86,0.00,,,-99.99,0,WeatherLink 5.7,2013-01-31 13:25:00,
2013-01-31 06:30:00,22.7,19.1,30.36,North,-999,0.0,0.0,86,0.00,,,-99.99,0,WeatherLink 5.7,2013-01-31 13:30:00,
2013-01-31 06:35:00,22.7,19.1,30.36,North,-999,0.0,0.0,86,0.00,,,-99.99,0,WeatherLink 5.7,2013-01-31 13:35:00,
2013-01-31 06:40:00,22.7,19.1,30.36,North,-999,0.0,0.0,86,0.00,,,-99.99,0,WeatherLink 5.7,2013-01-31 13:40:00,
2013-01-31 06:45:00,22.7,19.1,30.36,North,-999,0.0,0.0,86,0.00,,,-99.99,0,WeatherLink 5.7,2013-01-31 13:45:00,
2013-01-31 06:50:00,22.7,19.1,30.36,North,-999,0.0,0.0,86,0.00,,,-99.99,0,WeatherLink 5.7,2013-01-31 13:50:00,
2013-01-31 06:55:00,22.7,19.1,30.36,North,-999,0.0,0.0,86,0.00,,,-99.99,0,WeatherLink 5.7,2013-01-31 13:55:00,
2013-01-31 07:00:00,22.7,19.1,30.38,North,-999,0.0,0.0,86,0.00,,,-99.99,0,WeatherLink 5.7,2013-01-31 14:00:00,
2013-01-31 07:05:00,22.7,19.1,30.38,North,-999,0.0,0.0,86,0.00,,,-99.99,0,WeatherLink 5.7,2013-01-31 14:05:00,
2013-01-31 07:10:00,22.7,19.1,30.38,NNW,337,0.0,2.0,86,0.00,,,-99.99,0,WeatherLink 5.7,2013-01-31 14:10:00,
2013-01-31 07:15:00,22.6,19.0,30.38,NNW,337,0.0,2.0,86,0.00,,,-99.99,0,WeatherLink 5.7,2013-01-31 14:15:00,
2013-01-31 07:20:00,22.4,18.8,30.38,NNW,337,0.0,1.0,86,0.00,,,-99.99,0,WeatherLink 5.7,2013-01-31 14:20:00,
2013-01-31 07:25:00,22.4,18.8,30.38,NNW,337,0.0,2.0,86,0.00,,,-99.99,0,WeatherLink 5.7,2013-01-31 14:25:00,
2013-01-31 07:30:00,22.2,18.7,30.38,NNW,337,0.0,1.0,86,0.00,,,-99.99,0,WeatherLink 5.7,2013-01-31 14:30:00,
2013-01-31 07:35:00,22.2,18.7,30.38,NNW,337,0.0,2.0,86,0.00,,,-99.99,0,WeatherLink 5.7,2013-01-31 14:35:00,
2013-01-31 07:40:00,22.1,18.6,30.38,NNW,337,0.0,3.0,86,0.00,,,-99.99,0,WeatherLink 5.7,2013-01-31 14:40:00,
2013-01-31 07:45:00,21.9,18.4,30.40,NNW,337,0.0,2.0,86,0.00,,,-99.99,2,WeatherLink 5.7,2013-01-31 14:45:00,
2013-01-31 07:50:00,21.9,18.4,30.40,North,-999,0.0,0.0,86,0.00,,,-99.99,5,WeatherLink 5.7,2013-01-31 14:50:00,
2013-01-31 07:55:00,21.8,18.3,30.40,North,-999,0.0,0.0,86,0.00,,,-99.99,5,WeatherLink 5.7,2013-01-31 14:55:00,
2013-01-31 08:00:00,21.8,18.3,30.42,NNW,337,0.0,2.0,86,0.00,,,-99.99,5,WeatherLink 5.7,2013-01-31 15:00:00,
2013-01-31 08:05:00,21.8,18.3,30.42,NNW,337,1.0,3.0,86,0.00,,,-99.99,5,WeatherLink 5.7,2013-01-31 15:05:00,
2013-01-31 08:10:00,21.8,18.3,30.42,NNW,337,1.0,3.0,86,0.00,,,-99.99,8,WeatherLink 5.7,2013-01-31 15:10:00,
2013-01-31 08:15:00,21.8,18.3,30.42,NNW,337,1.0,3.0,86,0.00,,,-99.99,10,WeatherLink 5.7,2013-01-31 15:15:00,
2013-01-31 08:20:00,21.6,18.1,30.42,NNW,337,1.0,4.0,86,0.00,,,-99.99,11,WeatherLink 5.7,2013-01-31 15:20:00,
2013-01-31 08:25:00,21.6,18.1,30.42,North,-999,0.0,0.0,86,0.00,,,-99.99,14,WeatherLink 5.7,2013-01-31 15:25:00,
2013-01-31 08:30:00,21.8,18.3,30.43,North,-999,0.0,0.0,86,0.00,,,-99.99,16,WeatherLink 5.7,2013-01-31 15:30:00,
2013-01-31 08:35:00,21.8,18.3,30.43,North,-999,0.0,0.0,86,0.00,,,-99.99,18,WeatherLink 5.7,2013-01-31 15:35:00,
2013-01-31 08:40:00,21.9,18.4,30.43,North,-999,0.0,0.0,86,0.00,,,-99.99,19,WeatherLink 5.7,2013-01-31 15:40:00,
2013-01-31 08:45:00,22.1,18.6,30.44,North,-999,0.0,0.0,86,0.00,,,-99.99,18,WeatherLink 5.7,2013-01-31 15:45:00,
2013-01-31 08:50:00,22.2,18.7,30.44,North,-999,0.0,0.0,86,0.00,,,-99.99,21,WeatherLink 5.7,2013-01-31 15:50:00,
2013-01-31 08:55:00,22.4,18.8,30.44,North,-999,0.0,0.0,86,0.00,,,-99.99,22,WeatherLink 5.7,2013-01-31 15:55:00,
2013-01-31 09:00:00,22.4,18.8,30.44,North,-999,0.0,0.0,86,0.00,,,-99.99,28,WeatherLink 5.7,2013-01-31 16:00:00,
2013-01-31 09:05:00,22.6,18.8,30.44,North,-999,0.0,0.0,85,0.00,,,-99.99,30,WeatherLink 5.7,2013-01-31 16:05:00,
2013-01-31 09:10:00,22.7,18.9,30.44,North,-999,0.0,0.0,85,0.00,,,-99.99,32,WeatherLink 5.7,2013-01-31 16:10:00,
2013-01-31 09:15:00,22.9,19.1,30.44,North,-999,0.0,0.0,85,0.00,,,-99.99,34,WeatherLink 5.7,2013-01-31 16:15:00,
2013-01-31 09:20:00,23.2,19.4,30.44,North,-999,0.0,0.0,85,0.00,,,-99.99,36,WeatherLink 5.7,2013-01-31 16:20:00,
2013-01-31 09:25:00,23.3,19.5,30.44,North,-999,0.0,0.0,85,0.00,,,-99.99,38,WeatherLink 5.7,2013-01-31 16:25:00,
2013-01-31 09:30:00,23.5,19.7,30.44,North,-999,0.0,0.0,85,0.00,,,-99.99,40,WeatherLink 5.7,2013-01-31 16:30:00,
2013-01-31 09:35:00,23.6,19.8,30.44,North,-999,0.0,0.0,85,0.00,,,-99.99,41,WeatherLink 5.7,2013-01-31 16:35:00,
2013-01-31 09:40:00,23.8,19.9,30.44,North,-999,0.0,0.0,85,0.00,,,-99.99,40,WeatherLink 5.7,2013-01-31 16:40:00,
2013-01-31 09:45:00,24.1,20.2,30.44,North,-999,0.0,0.0,85,0.00,,,-99.99,43,WeatherLink 5.7,2013-01-31 16:45:00,
2013-01-31 09:50:00,24.2,20.1,30.44,North,-999,0.0,0.0,84,0.00,,,-99.99,44,WeatherLink 5.7,2013-01-31 16:50:00,
2013-01-31 09:55:00,24.5,20.4,30.44,North,-999,0.0,0.0,84,0.00,,,-99.99,42,WeatherLink 5.7,2013-01-31 16:55:00,
2013-01-31 10:00:00,24.8,20.7,30.44,North,-999,0.0,0.0,84,0.00,,,-99.99,50,WeatherLink 5.7,2013-01-31 17:00:00,
2013-01-31 10:05:00,25.1,20.9,30.44,North,-999,0.0,0.0,84,0.00,,,-99.99,51,WeatherLink 5.7,2013-01-31 17:05:00,
2013-01-31 10:10:00,25.1,20.7,30.44,North,-999,0.0,0.0,83,0.00,,,-99.99,50,WeatherLink 5.7,2013-01-31 17:10:00,
2013-01-31 10:15:00,25.3,20.9,30.45,North,-999,0.0,0.0,83,0.00,,,-99.99,53,WeatherLink 5.7,2013-01-31 17:15:00,
2013-01-31 10:20:00,25.4,21.0,30.45,North,-999,0.0,0.0,83,0.00,,,-99.99,54,WeatherLink 5.7,2013-01-31 17:20:00,
2013-01-31 10:25:00,25.4,21.0,30.45,North,-999,0.0,0.0,83,0.00,,,-99.99,54,WeatherLink 5.7,2013-01-31 17:25:00,
2013-01-31 10:30:00,25.4,20.7,30.44,North,-999,0.0,0.0,82,0.00,,,-99.99,60,WeatherLink 5.7,2013-01-31 17:30:00,
2013-01-31 10:35:00,25.7,21.3,30.44,North,-999,0.0,0.0,83,0.00,,,-99.99,61,WeatherLink 5.7,2013-01-31 17:35:00,
2013-01-31 10:40:00,25.8,21.1,30.44,North,-999,0.0,0.0,82,0.00,,,-99.99,62,WeatherLink 5.7,2013-01-31 17:40:00,
2013-01-31 10:45:00,26.1,21.4,30.44,North,-999,0.0,0.0,82,0.00,,,-99.99,72,WeatherLink 5.7,2013-01-31 17:45:00,
2013-01-31 10:50:00,26.7,21.9,30.44,North,-999,0.0,0.0,82,0.00,,,-99.99,73,WeatherLink 5.7,2013-01-31 17:50:00,
2013-01-31 10:55:00,27.3,22.2,30.44,North,-999,0.0,0.0,81,0.00,,,-99.99,68,WeatherLink 5.7,2013-01-31 17:55:00,
2013-01-31 11:00:00,27.3,21.9,30.45,North,-999,0.0,0.0,80,0.00,,,-99.99,66,WeatherLink 5.7,2013-01-31 18:00:00,
2013-01-31 11:05:00,27.5,22.1,30.45,North,-999,0.0,0.0,80,0.00,,,-99.99,65,WeatherLink 5.7,2013-01-31 18:05:00,
2013-01-31 11:10:00,27.5,22.1,30.45,North,-999,0.0,0.0,80,0.00,,,-99.99,68,WeatherLink 5.7,2013-01-31 18:10:00,
2013-01-31 11:15:00,27.6,21.9,30.43,North,-999,0.0,0.0,79,0.00,,,-99.99,73,WeatherLink 5.7,2013-01-31 18:15:00,
2013-01-31 11:20:00,27.6,21.9,30.43,North,-999,0.0,0.0,79,0.00,,,-99.99,71,WeatherLink 5.7,2013-01-31 18:20:00,
2013-01-31 11:25:00,27.9,22.2,30.43,North,-999,0.0,0.0,79,0.00,,,-99.99,72,WeatherLink 5.7,2013-01-31 18:25:00,
2013-01-31 11:30:00,27.9,21.9,30.43,NNW,337,0.0,2.0,78,0.00,,,-99.99,81,WeatherLink 5.7,2013-01-31 18:30:00,
2013-01-31 11:35:00,27.8,21.8,30.43,NNW,337,1.0,3.0,78,0.00,,,-99.99,79,WeatherLink 5.7,2013-01-31 18:35:00,
2013-01-31 11:40:00,28.1,22.4,30.43,North,-999,0.0,0.0,79,0.00,,,-99.99,83,WeatherLink 5.7,2013-01-31 18:40:00,
2013-01-31 11:45:00,28.4,22.4,30.42,NNW,337,1.0,3.0,78,0.00,,,-99.99,94,WeatherLink 5.7,2013-01-31 18:45:00,
2013-01-31 11:50:00,28.5,22.5,30.42,NNW,337,1.0,4.0,78,0.00,,,-99.99,107,WeatherLink 5.7,2013-01-31 18:50:00,
2013-01-31 11:55:00,28.7,22.4,30.42,NNW,337,2.0,4.0,77,0.00,,,-99.99,95,WeatherLink 5.7,2013-01-31 18:55:00,
2013-01-31 12:00:00,28.8,22.5,30.41,NNW,337,1.0,3.0,77,0.00,,,-99.99,106,WeatherLink 5.7,2013-01-31 19:00:00,
2013-01-31 12:05:00,28.8,22.5,30.41,NNW,337,2.0,4.0,77,0.00,,,-99.99,132,WeatherLink 5.7,2013-01-31 19:05:00,
2013-01-31 12:10:00,29.5,22.9,30.41,West,270,1.0,3.0,76,0.00,,,-99.99,131,WeatherLink 5.7,2013-01-31 19:10:00,
2013-01-31 12:15:00,29.8,23.2,30.39,NW,315,1.0,4.0,76,0.00,,,-99.99,145,WeatherLink 5.7,2013-01-31 19:15:00,
2013-01-31 12:20:00,30.0,23.0,30.39,West,270,1.0,4.0,75,0.01,,,-99.99,152,WeatherLink 5.7,2013-01-31 19:20:00,
2013-01-31 12:25:00,30.0,22.7,30.39,NW,315,1.0,3.0,74,0.01,,,-99.99,174,WeatherLink 5.7,2013-01-31 19:25:00,
2013-01-31 12:30:00,30.1,22.8,30.39,NW,315,2.0,4.0,74,0.01,,,-99.99,138,WeatherLink 5.7,2013-01-31 19:30:00,
2013-01-31 12:35:00,30.3,22.7,30.39,NNW,337,2.0,4.0,73,0.01,,,-99.99,165,WeatherLink 5.7,2013-01-31 19:35:00,
2013-01-31 12:40:00,30.3,23.0,30.39,NW,315,1.0,3.0,74,0.01,,,-99.99,156,WeatherLink 5.7,2013-01-31 19:40:00,
2013-01-31 12:45:00,30.4,22.8,30.38,West,270,1.0,3.0,73,0.01,,,-99.99,117,WeatherLink 5.7,2013-01-31 19:45:00,
2013-01-31 12:50:00,30.3,22.7,30.38,WNW,292,0.0,3.0,73,0.01,,,-99.99,113,WeatherLink 5.7,2013-01-31 19:50:00,
2013-01-31 12:55:00,30.4,22.8,30.38,WNW,292,0.0,2.0,73,0.01,,,-99.99,159,WeatherLink 5.7,2013-01-31 19:55:00,
2013-01-31 13:00:00,30.9,23.3,30.37,WNW,292,0.0,1.0,73,0.01,,,-99.99,202,WeatherLink 5.7,2013-01-31 20:00:00,
2013-01-31 13:05:00,31.3,23.6,30.37,West,270,0.0,3.0,73,0.01,,,-99.99,161,WeatherLink 5.7,2013-01-31 20:05:00,
2013-01-31 13:10:00,31.8,24.1,30.37,NW,315,1.0,6.0,73,0.01,,,-99.99,154,WeatherLink 5.7,2013-01-31 20:10:00,
2013-01-31 13:15:00,32.4,24.4,30.33,NNW,337,1.0,4.0,72,0.01,,,-99.99,147,WeatherLink 5.7,2013-01-31 20:15:00,
2013-01-31 13:20:00,32.6,24.2,30.33,NW,315,2.0,5.0,71,0.00,,,-99.99,134,WeatherLink 5.7,2013-01-31 20:20:00,
2013-01-31 13:25:00,32.8,24.1,30.33,NW,315,1.0,4.0,70,0.00,,,-99.99,127,WeatherLink 5.7,2013-01-31 20:25:00,
2013-01-31 13:30:00,32.9,24.2,30.33,NNW,337,0.0,2.0,70,0.00,,,-99.99,149,WeatherLink 5.7,2013-01-31 20:30:00,
2013-01-31 13:35:00,33.4,25.0,30.33,NNW,337,0.0,2.0,71,0.00,,,-99.99,228,WeatherLink 5.7,2013-01-31 20:35:00,
2013-01-31 13:40:00,34.9,24.7,30.33,NNW,337,0.0,3.0,66,0.00,,,-99.99,663,WeatherLink 5.7,2013-01-31 20:40:00,
2013-01-31 13:45:00,36.0,24.6,30.28,NNW,337,1.0,4.0,63,0.01,,,-99.99,690,WeatherLink 5.7,2013-01-31 20:45:00,
2013-01-31 13:50:00,36.3,24.9,30.28,NNW,337,0.0,3.0,63,0.01,,,-99.99,624,WeatherLink 5.7,2013-01-31 20:50:00,
2013-01-31 13:55:00,37.0,24.4,30.28,NNW,337,0.0,3.0,60,0.02,,,-99.99,516,WeatherLink 5.7,2013-01-31 20:55:00,
2013-01-31 14:05:00,37.0,24.4,30.28,NNW,337,1.0,6.0,60,0.02,,,-99.99,569,WeatherLink 5.7,2013-01-31 21:05:00,
2013-01-31 14:15:00,37.5,24.5,30.28,NNW,337,1.0,3.0,59,0.03,,,-99.99,562,WeatherLink 5.7,2013-01-31 21:15:00,
2013-01-31 14:20:00,38.0,24.5,30.26,NNW,337,0.0,1.0,58,0.04,,,-99.99,551,WeatherLink 5.7,2013-01-31 21:20:00,
2013-01-31 14:30:00,38.2,24.3,30.26,WSW,247,1.0,4.0,57,0.05,,,-99.99,535,WeatherLink 5.7,2013-01-31 21:30:00,
2013-01-31 14:35:00,37.5,24.1,30.26,WSW,247,0.0,3.0,58,0.05,,,-99.99,489,WeatherLink 5.7,2013-01-31 21:35:00,
2013-01-31 14:40:00,37.7,24.2,30.26,West,270,0.0,1.0,58,0.05,,,-99.99,510,WeatherLink 5.7,2013-01-31 21:40:00,
2013-01-31 14:50:00,37.6,24.1,30.25,WNW,292,0.0,3.0,58,0.06,,,-99.99,480,WeatherLink 5.7,2013-01-31 21:50:00,
2013-01-31 14:55:00,37.2,23.8,30.25,WNW,292,0.0,2.0,58,0.06,,,-99.99,446,WeatherLink 5.7,2013-01-31 21:55:00,
2013-01-31 15:00:00,36.7,23.7,30.25,WNW,292,0.0,3.0,59,0.05,,,-99.99,483,WeatherLink 5.7,2013-01-31 22:00:00,
2013-01-31 15:10:00,37.5,23.6,30.27,WNW,292,0.0,3.0,57,0.05,,,-99.99,456,WeatherLink 5.7,2013-01-31 22:10:00,
2013-01-31 15:15:00,37.6,23.7,30.27,WNW,292,0.0,2.0,57,0.06,,,-99.99,460,WeatherLink 5.7,2013-01-31 22:15:00,
2013-01-31 15:25:00,36.6,23.2,30.27,NW,315,0.0,2.0,58,0.05,,,-99.99,289,WeatherLink 5.7,2013-01-31 22:25:00,
2013-01-31 15:30:00,36.7,22.9,30.27,NW,315,0.0,3.0,57,0.04,,,-99.99,385,WeatherLink 5.7,2013-01-31 22:30:00,
2013-01-31 15:40:00,36.9,23.1,30.27,West,270,0.0,3.0,57,0.05,,,-99.99,266,WeatherLink 5.7,2013-01-31 22:40:00,
2013-01-31 15:45:00,36.9,21.8,30.27,West,270,1.0,5.0,54,0.04,,,-99.99,297,WeatherLink 5.7,2013-01-31 22:45:00,
2013-01-31 15:50:00,36.9,21.8,30.27,West,270,2.0,5.0,54,0.03,,,-99.99,139,WeatherLink 5.7,2013-01-31 22:50:00,
2013-01-31 16:00:00,36.0,20.9,30.27,WNW,292,1.0,4.0,54,0.03,,,-99.99,98,WeatherLink 5.7,2013-01-31 23:00:00,
2013-01-31 16:10:00,36.0,20.1,30.27,WNW,292,4.0,10.0,52,0.02,,,-99.99,117,WeatherLink 5.7,2013-01-31 23:10:00,
2013-01-31 16:15:00,36.0,20.1,30.27,WNW,292,3.0,6.0,52,0.01,,,-99.99,92,WeatherLink 5.7,2013-01-31 23:15:00,
2013-01-31 16:25:00,36.0,20.1,30.27,NNW,337,2.0,7.0,52,0.01,,,-99.99,83,WeatherLink 5.7,2013-01-31 23:25:00,
2013-01-31 16:30:00,36.0,20.5,30.27,NNW,337,1.0,4.0,53,0.01,,,-99.99,71,WeatherLink 5.7,2013-01-31 23:30:00,
2013-01-31 16:35:00,36.0,20.9,30.28,NW,315,1.0,5.0,54,0.01,,,-99.99,59,WeatherLink 5.7,2013-01-31 23:35:00,
2013-01-31 16:40:00,35.9,20.9,30.28,NNW,337,1.0,5.0,54,0.00,,,-99.99,53,WeatherLink 5.7,2013-01-31 23:40:00,
2013-01-31 16:50:00,35.7,21.5,30.28,North,-999,0.0,0.0,56,0.00,,,-99.99,39,WeatherLink 5.7,2013-01-31 23:50:00,
2013-01-31 16:55:00,35.6,21.9,30.28,North,0,0.0,1.0,57,0.00,,,-99.99,32,WeatherLink 5.7,2013-01-31 23:55:00,
2013-01-31 17:00:00,35.3,22.4,30.28,East,90,0.0,2.0,59,0.00,,,-99.99,26,WeatherLink 5.7,2013-02-01 00:00:00,
2013-01-31 17:10:00,35.2,21.9,30.29,North,0,0.0,3.0,58,0.00,,,-99.99,19,WeatherLink 5.7,2013-02-01 00:10:00,
2013-01-31 17:15:00,35.2,21.9,30.29,North,0,0.0,2.0,58,0.00,,,-99.99,16,WeatherLink 5.7,2013-02-01 00:15:00,
2013-01-31 17:25:00,34.9,22.0,30.29,North,-999,0.0,0.0,59,0.00,,,-99.99,14,WeatherLink 5.7,2013-02-01 00:25:00,
2013-01-31 17:35:00,34.3,22.6,30.30,North,-999,0.0,0.0,62,0.00,,,-99.99,9,WeatherLink 5.7,2013-02-01 00:35:00,
2013-01-31 17:40:00,34.0,23.1,30.30,North,-999,0.0,0.0,64,0.00,,,-99.99,6,WeatherLink 5.7,2013-02-01 00:40:00,
2013-01-31 17:50:00,32.6,23.2,30.31,North,-999,0.0,0.0,68,0.00,,,-99.99,0,WeatherLink 5.7,2013-02-01 00:50:00,
2013-01-31 18:00:00,31.5,23.2,30.31,North,0,0.0,1.0,71,0.00,,,-99.99,0,WeatherLink 5.7,2013-02-01 01:00:00,
2013-01-31 18:10:00,30.7,22.7,30.33,North,-999,0.0,0.0,72,0.00,,,-99.99,0,WeatherLink 5.7,2013-02-01 01:10:00,
2013-01-31 18:20:00,30.1,22.8,30.35,North,-999,0.0,0.0,74,0.00,,,-99.99,0,WeatherLink 5.7,2013-02-01 01:20:00,
2013-01-31 18:30:00,29.7,22.7,30.35,North,-999,0.0,0.0,75,0.00,,,-99.99,0,WeatherLink 5.7,2013-02-01 01:30:00,
2013-01-31 18:35:00,29.5,22.6,30.35,North,-999,0.0,0.0,75,0.00,,,-99.99,0,WeatherLink 5.7,2013-02-01 01:35:00,
2013-01-31 18:40:00,29.7,22.7,30.35,North,-999,0.0,0.0,75,0.00,,,-99.99,0,WeatherLink 5.7,2013-02-01 01:40:00,
2013-01-31 18:50:00,29.7,22.7,30.36,North,-999,0.0,0.0,75,0.00,,,-99.99,0,WeatherLink 5.7,2013-02-01 01:50:00,
2013-01-31 18:55:00,29.5,22.6,30.36,North,0,0.0,3.0,75,0.00,,,-99.99,0,WeatherLink 5.7,2013-02-01 01:55:00,
2013-01-31 19:00:00,29.4,22.8,30.36,North,0,1.0,2.0,76,0.00,,,-99.99,0,WeatherLink 5.7,2013-02-01 02:00:00,
2013-01-31 19:10:00,29.4,23.1,30.36,North,0,0.0,1.0,77,0.00,,,-99.99,0,WeatherLink 5.7,2013-02-01 02:10:00,
2013-01-31 19:15:00,29.4,23.1,30.36,NW,315,1.0,3.0,77,0.00,,,-99.99,0,WeatherLink 5.7,2013-02-01 02:15:00,
2013-01-31 19:25:00,29.5,22.9,30.38,North,-999,0.0,0.0,76,0.00,,,-99.99,0,WeatherLink 5.7,2013-02-01 02:25:00,
2013-01-31 19:30:00,29.4,22.8,30.38,North,-999,0.0,0.0,76,0.00,,,-99.99,0,WeatherLink 5.7,2013-02-01 02:30:00,
2013-01-31 19:40:00,29.1,22.8,30.38,North,-999,0.0,0.0,77,0.00,,,-99.99,0,WeatherLink 5.7,2013-02-01 02:40:00,
2013-01-31 19:45:00,29.0,23.0,30.38,North,-999,0.0,0.0,78,0.00,,,-99.99,0,WeatherLink 5.7,2013-02-01 02:45:00,
2013-01-31 19:55:00,28.7,22.7,30.38,North,-999,0.0,0.0,78,0.00,,,-99.99,0,WeatherLink 5.7,2013-02-01 02:55:00,
2013-01-31 20:00:00,28.8,23.1,30.38,North,-999,0.0,0.0,79,0.00,,,-99.99,0,WeatherLink 5.7,2013-02-01 03:00:00,
2013-01-31 20:10:00,28.7,23.0,30.39,North,-999,0.0,0.0,79,0.00,,,-99.99,0,WeatherLink 5.7,2013-02-01 03:10:00,
2013-01-31 20:15:00,28.8,23.1,30.39,North,-999,0.0,0.0,79,0.00,,,-99.99,0,WeatherLink 5.7,2013-02-01 03:15:00,
2013-01-31 20:25:00,29.0,23.3,30.39,East,90,0.0,2.0,79,0.00,,,-99.99,0,WeatherLink 5.7,2013-02-01 03:25:00,
2013-01-31 20:30:00,29.1,23.1,30.39,East,90,0.0,1.0,78,0.00,,,-99.99,0,WeatherLink 5.7,2013-02-01 03:30:00,
2013-01-31 20:35:00,29.1,23.1,30.39,East,90,0.0,2.0,78,0.00,,,-99.99,0,WeatherLink 5.7,2013-02-01 03:35:00,
2013-01-31 20:45:00,29.1,22.8,30.39,North,-999,0.0,0.0,77,0.00,,,-99.99,0,WeatherLink 5.7,2013-02-01 03:45:00,
2013-01-31 20:50:00,29.1,22.8,30.40,North,-999,0.0,0.0,77,0.00,,,-99.99,0,WeatherLink 5.7,2013-02-01 03:50:00,
2013-01-31 20:55:00,29.0,22.7,30.40,North,-999,0.0,0.0,77,0.00,,,-99.99,0,WeatherLink 5.7,2013-02-01 03:55:00,
2013-01-31 21:00:00,28.8,22.5,30.40,North,-999,0.0,0.0,77,0.00,,,-99.99,0,WeatherLink 5.7,2013-02-01 04:00:00,
2013-01-31 21:10:00,28.7,22.4,30.39,North,-999,0.0,0.0,77,0.00,,,-99.99,0,WeatherLink 5.7,2013-02-01 04:10:00,
2013-01-31 21:20:00,28.7,22.4,30.36,East,90,0.0,2.0,77,0.00,,,-99.99,0,WeatherLink 5.7,2013-02-01 04:20:00,
2013-01-31 21:30:00,28.7,22.7,30.36,East,90,0.0,2.0,78,0.00,,,-99.99,0,WeatherLink 5.7,2013-02-01 04:30:00,
2013-01-31 21:35:00,28.5,22.5,30.36,North,-999,0.0,0.0,78,0.00,,,-99.99,0,WeatherLink 5.7,2013-02-01 04:35:00,
2013-01-31 21:45:00,28.4,22.7,30.36,East,90,0.0,1.0,79,0.00,,,-99.99,0,WeatherLink 5.7,2013-02-01 04:45:00,
2013-01-31 21:50:00,28.4,22.7,30.38,East,90,1.0,2.0,79,0.00,,,-99.99,0,WeatherLink 5.7,2013-02-01 04:50:00,
2013-01-31 22:00:00,28.5,22.8,30.38,East,90,0.0,3.0,79,0.00,,,-99.99,0,WeatherLink 5.7,2013-02-01 05:00:00,
2013-01-31 22:10:00,28.4,22.7,30.37,North,-999,0.0,0.0,79,0.00,,,-99.99,0,WeatherLink 5.7,2013-02-01 05:10:00,
2013-01-31 22:15:00,28.4,22.7,30.37,North,-999,0.0,0.0,79,0.00,,,-99.99,0,WeatherLink 5.7,2013-02-01 05:15:00,
2013-01-31 22:20:00,28.2,22.5,30.36,North,-999,0.0,0.0,79,0.00,,,-99.99,0,WeatherLink 5.7,2013-02-01 05:20:00,
2013-01-31 22:30:00,28.2,22.5,30.36,East,90,0.0,1.0,79,0.00,,,-99.99,0,WeatherLink 5.7,2013-02-01 05:30:00,
2013-01-31 22:35:00,28.2,22.8,30.35,North,-999,0.0,0.0,80,0.00,,,-99.99,0,WeatherLink 5.7,2013-02-01 05:35:00,
2013-01-31 22:45:00,28.1,22.7,30.35,East,90,0.0,2.0,80,0.00,,,-99.99,0,WeatherLink 5.7,2013-02-01 05:45:00,
2013-01-31 22:55:00,28.2,22.8,30.35,North,-999,0.0,0.0,80,0.00,,,-99.99,0,WeatherLink 5.7,2013-02-01 05:55:00,
2013-01-31 23:00:00,28.1,22.7,30.35,East,90,1.0,2.0,80,0.00,,,-99.99,0,WeatherLink 5.7,2013-02-01 06:00:00,
2013-01-31 23:10:00,27.9,22.5,30.35,East,90,1.0,3.0,80,0.00,,,-99.99,0,WeatherLink 5.7,2013-02-01 06:10:00,
2013-01-31 23:15:00,27.9,22.5,30.35,East,90,1.0,3.0,80,0.00,,,-99.99,0,WeatherLink 5.7,2013-02-01 06:15:00,
2013-01-31 23:25:00,27.9,22.8,30.34,East,90,0.0,2.0,81,0.00,,,-99.99,0,WeatherLink 5.7,2013-02-01 06:25:00,
2013-01-31 23:35:00,28.1,23.0,30.34,East,90,2.0,3.0,81,0.00,,,-99.99,0,WeatherLink 5.7,2013-02-01 06:35:00,
2013-01-31 23:40:00,28.1,23.0,30.34,East,90,0.0,2.0,81,0.00,,,-99.99,0,WeatherLink 5.7,2013-02-01 06:40:00,
2013-01-31 23:50:00,27.9,22.8,30.33,East,90,0.0,2.0,81,0.00,,,-99.99,0,WeatherLink 5.7,2013-02-01 06:50:00,
2013-01-31 23:55:00,27.9,22.8,30.33,North,-999,0.0,0.0,81,0.00,,,-99.99,0,WeatherLink 5.7,2013-02-01 06:55:00,